PWSweather.com
Personal Weather Stations
Station Observations
KMAMEDFI2
Medfield, MA 02052

Medfield, MA 02052

Lat: 42.1900822, Lon: -71.3296889

Elevation: 138

Station Type: Rainwise WS MK-III

http://www.medfieldweather.com

Latest ConditionsUpdated 10:20:00 PM EDT Monday, Mar 27, 2017
Currently Today's Max Today's Min Today's Average
Temperature 39.6°F4.2°C 42.0°F5.6°C 34.1°F1.2°C 38.1°F3.4°C
Dew Point 38.6°F3.7°C 41.0°F5.0°C 32.7°F0.4°C 36.7°F2.6°C
Winds 0.3 mph NW0.5 kmh NW 2.9 mph WSW4.7 kmh WSW - 0.5 mph 0.8 kmh
Wind Gusts 2.6 mph4.2 kmh 6.5 mph10.5 kmh - -
Humidity 96% 96% 88% 95%
Pressure 30.04 in1017.3 mb 30.39 in1029.1 mb 30.01 in1016.3 mb -
Precipitation - 0.57 in14.5 mm - -
Hour Temp Dew Point Humidity Winds Wind Gusts Pressure Precip Precip Rate Daily Precip Total
10:20 PM 39.6°F4.2°C 38.6°F3.7°C 96% 0.3 mph NW0.5 kmh NW 2.6 mph4.2 kmh 30.04 in1017.3 mb - 0.00 in0.0 mm 0.57 in14.5 mm
10:10 PM 39.7°F4.3°C 38.7°F3.7°C 96% Calm Calm -- 30.05 in1017.6 mb - 0.00 in0.0 mm 0.57 in14.5 mm
10:00 PM 39.7°F4.3°C 38.7°F3.7°C 96% Calm Calm -- 30.04 in1017.3 mb - 0.00 in0.0 mm 0.57 in14.5 mm
09:50 PM 39.8°F4.3°C 38.7°F3.7°C 96% 1.2 mph WSW1.9 kmh WSW 2.6 mph4.2 kmh 30.05 in1017.6 mb - 0.00 in0.0 mm 0.57 in14.5 mm
09:40 PM 39.8°F4.3°C 38.8°F3.8°C 96% 1.5 mph NW2.4 kmh NW 2.6 mph4.2 kmh 30.05 in1017.6 mb - 0.00 in0.0 mm 0.57 in14.5 mm
09:30 PM 39.9°F4.4°C 38.8°F3.8°C 96% 1.3 mph NW2.1 kmh NW 3.9 mph6.3 kmh 30.04 in1017.3 mb - 0.00 in0.0 mm 0.57 in14.5 mm
09:20 PM 40.0°F4.4°C 39.0°F3.9°C 96% 0.9 mph N1.4 kmh N 2.6 mph4.2 kmh 30.05 in1017.6 mb - 0.00 in0.0 mm 0.57 in14.5 mm
09:10 PM 40.2°F4.6°C 39.2°F4.0°C 96% 0.8 mph SW1.3 kmh SW 2.6 mph4.2 kmh 30.05 in1017.6 mb - 0.00 in0.0 mm 0.57 in14.5 mm
09:00 PM 40.3°F4.6°C 39.3°F4.1°C 96% 0.1 mph NW0.2 kmh NW -- 30.05 in1017.6 mb - 0.00 in0.0 mm 0.57 in14.5 mm
08:50 PM 40.5°F4.7°C 39.4°F4.1°C 96% 1.5 mph NE2.4 kmh NE 2.6 mph4.2 kmh 30.04 in1017.3 mb - 0.00 in0.0 mm 0.57 in14.5 mm
08:40 PM 40.6°F4.8°C 39.6°F4.2°C 96% 1.5 mph WNW2.4 kmh WNW 2.6 mph4.2 kmh 30.03 in1016.9 mb - 0.00 in0.0 mm 0.57 in14.5 mm
08:30 PM 40.7°F4.8°C 39.6°F4.2°C 96% 0.1 mph WSW0.2 kmh WSW 1.3 mph2.1 kmh 30.03 in1016.9 mb - 0.00 in0.0 mm 0.57 in14.5 mm
08:20 PM 40.8°F4.9°C 39.7°F4.3°C 96% Calm Calm -- 30.03 in1016.9 mb - 0.00 in0.0 mm 0.57 in14.5 mm
08:10 PM 40.9°F4.9°C 39.8°F4.3°C 96% 1.1 mph ESE1.8 kmh ESE 2.6 mph4.2 kmh 30.03 in1016.9 mb - 0.00 in0.0 mm 0.57 in14.5 mm
08:00 PM 40.9°F4.9°C 39.8°F4.3°C 96% 2.0 mph N3.2 kmh N 2.6 mph4.2 kmh 30.03 in1016.9 mb - 0.00 in0.0 mm 0.57 in14.5 mm
07:50 PM 40.9°F4.9°C 39.8°F4.3°C 96% 0.3 mph SSW0.5 kmh SSW 1.3 mph2.1 kmh 30.03 in1016.9 mb - 0.00 in0.0 mm 0.57 in14.5 mm
07:40 PM 40.9°F4.9°C 39.8°F4.3°C 96% 0.3 mph N0.5 kmh N 2.6 mph4.2 kmh 30.02 in1016.6 mb - 0.00 in0.0 mm 0.57 in14.5 mm
07:30 PM 40.9°F4.9°C 39.9°F4.4°C 96% 0.2 mph SE0.3 kmh SE -- 30.02 in1016.6 mb - 0.00 in0.0 mm 0.57 in14.5 mm
07:20 PM 41.0°F5.0°C 40.0°F4.4°C 96% Calm Calm -- 30.02 in1016.6 mb - 0.00 in0.0 mm 0.57 in14.5 mm
07:10 PM 41.2°F5.1°C 40.1°F4.5°C 96% 2.4 mph WSW3.9 kmh WSW 2.6 mph4.2 kmh 30.02 in1016.6 mb - 0.00 in0.0 mm 0.57 in14.5 mm
07:00 PM 41.4°F5.2°C 40.3°F4.6°C 96% 1.6 mph NNW2.6 kmh NNW 2.6 mph4.2 kmh 30.01 in1016.3 mb - 0.00 in0.0 mm 0.57 in14.5 mm
06:50 PM 41.4°F5.2°C 40.3°F4.6°C 96% Calm Calm -- 30.01 in1016.3 mb - 0.00 in0.0 mm 0.57 in14.5 mm
06:40 PM 41.5°F5.3°C 40.4°F4.7°C 96% 0.2 mph W0.3 kmh W 1.3 mph2.1 kmh 30.02 in1016.6 mb - 0.00 in0.0 mm 0.57 in14.5 mm
06:30 PM 41.6°F5.3°C 40.5°F4.7°C 96% Calm Calm 1.3 mph2.1 kmh 30.01 in1016.3 mb - 0.00 in0.0 mm 0.57 in14.5 mm
06:20 PM 41.6°F5.3°C 40.6°F4.8°C 96% 1.4 mph WSW2.3 kmh WSW 2.6 mph4.2 kmh 30.02 in1016.6 mb - 0.00 in0.0 mm 0.57 in14.5 mm
06:10 PM 41.8°F5.4°C 40.7°F4.8°C 96% 1.1 mph SW1.8 kmh SW 2.6 mph4.2 kmh 30.02 in1016.6 mb - 0.00 in0.0 mm 0.57 in14.5 mm
06:00 PM 41.9°F5.5°C 40.8°F4.9°C 96% 2.9 mph WSW4.7 kmh WSW 3.9 mph6.3 kmh 30.02 in1016.6 mb - 0.00 in0.0 mm 0.57 in14.5 mm
05:50 PM 41.9°F5.5°C 40.8°F4.9°C 96% 1.4 mph WSW2.3 kmh WSW 1.3 mph2.1 kmh 30.02 in1016.6 mb - 0.00 in0.0 mm 0.57 in14.5 mm
05:40 PM 41.9°F5.5°C 40.8°F4.9°C 96% 0.4 mph N0.6 kmh N 3.9 mph6.3 kmh 30.02 in1016.6 mb - 0.00 in0.0 mm 0.57 in14.5 mm
05:30 PM 41.9°F5.5°C 40.8°F4.9°C 96% 1.0 mph WNW1.6 kmh WNW 2.6 mph4.2 kmh 30.01 in1016.3 mb - 0.00 in0.0 mm 0.57 in14.5 mm
05:20 PM 41.8°F5.4°C 40.8°F4.9°C 96% 0.1 mph S0.2 kmh S 1.3 mph2.1 kmh 30.01 in1016.3 mb - 0.00 in0.0 mm 0.57 in14.5 mm
05:10 PM 42.0°F5.6°C 40.9°F4.9°C 96% 0.5 mph N0.8 kmh N 2.6 mph4.2 kmh 30.02 in1016.6 mb - 0.00 in0.0 mm 0.57 in14.5 mm
05:00 PM 42.0°F5.6°C 41.0°F5.0°C 96% 1.2 mph NNW1.9 kmh NNW 1.3 mph2.1 kmh 30.02 in1016.6 mb - 0.00 in0.0 mm 0.57 in14.5 mm
04:50 PM 42.0°F5.6°C 41.0°F5.0°C 96% 1.2 mph W1.9 kmh W 2.6 mph4.2 kmh 30.02 in1016.6 mb - 0.00 in0.0 mm 0.57 in14.5 mm
04:40 PM 41.8°F5.4°C 40.8°F4.9°C 96% 1.1 mph W1.8 kmh W 2.6 mph4.2 kmh 30.02 in1016.6 mb - 0.00 in0.0 mm 0.57 in14.5 mm
04:30 PM 41.7°F5.4°C 40.6°F4.8°C 96% 2.2 mph N3.5 kmh N 2.6 mph4.2 kmh 30.02 in1016.6 mb - 0.00 in0.0 mm 0.57 in14.5 mm
04:20 PM 41.8°F5.4°C 40.8°F4.9°C 96% 1.7 mph SW2.7 kmh SW 2.6 mph4.2 kmh 30.02 in1016.6 mb - 0.00 in0.0 mm 0.57 in14.5 mm
04:10 PM 41.9°F5.5°C 40.8°F4.9°C 96% 0.5 mph SE0.8 kmh SE 1.3 mph2.1 kmh 30.03 in1016.9 mb - 0.00 in0.0 mm 0.57 in14.5 mm
04:00 PM 41.9°F5.5°C 40.8°F4.9°C 96% Calm Calm -- 30.03 in1016.9 mb - 0.00 in0.0 mm 0.57 in14.5 mm
03:50 PM 41.8°F5.4°C 40.8°F4.9°C 96% 0.6 mph N1.0 kmh N 2.6 mph4.2 kmh 30.04 in1017.3 mb - 0.00 in0.0 mm 0.57 in14.5 mm
03:40 PM 41.6°F5.3°C 40.6°F4.8°C 96% 1.5 mph WSW2.4 kmh WSW 5.2 mph8.4 kmh 30.04 in1017.3 mb - 0.00 in0.0 mm 0.57 in14.5 mm
03:30 PM 41.4°F5.2°C 40.3°F4.6°C 96% 2.1 mph SW3.4 kmh SW 6.5 mph10.5 kmh 30.04 in1017.3 mb - 0.00 in0.0 mm 0.57 in14.5 mm
03:20 PM 41.4°F5.2°C 40.4°F4.7°C 96% 0.6 mph NNW1.0 kmh NNW 2.6 mph4.2 kmh 30.05 in1017.6 mb - 0.00 in0.0 mm 0.57 in14.5 mm
03:10 PM 41.2°F5.1°C 40.2°F4.6°C 96% 0.9 mph N1.4 kmh N 2.6 mph4.2 kmh 30.05 in1017.6 mb - 0.00 in0.0 mm 0.57 in14.5 mm
03:00 PM 40.9°F4.9°C 39.8°F4.3°C 96% 0.4 mph W0.6 kmh W 2.6 mph4.2 kmh 30.05 in1017.6 mb - 0.01 in0.3 mm 0.57 in14.5 mm
02:50 PM 40.5°F4.7°C 39.5°F4.2°C 96% 2.1 mph NW3.4 kmh NW 2.6 mph4.2 kmh 30.05 in1017.6 mb - 0.00 in0.0 mm 0.56 in14.2 mm
02:40 PM 40.6°F4.8°C 39.5°F4.2°C 96% 2.1 mph W3.4 kmh W 2.6 mph4.2 kmh 30.05 in1017.6 mb - 0.00 in0.0 mm 0.56 in14.2 mm
02:30 PM 40.6°F4.8°C 39.6°F4.2°C 96% 1.4 mph W2.3 kmh W 2.6 mph4.2 kmh 30.05 in1017.6 mb - 0.00 in0.0 mm 0.56 in14.2 mm
02:20 PM 40.7°F4.8°C 39.6°F4.2°C 96% 0.7 mph E1.1 kmh E 2.6 mph4.2 kmh 30.06 in1017.9 mb - 0.00 in0.0 mm 0.56 in14.2 mm
02:10 PM 40.6°F4.8°C 39.6°F4.2°C 96% 0.1 mph WSW0.2 kmh WSW 1.3 mph2.1 kmh 30.06 in1017.9 mb - 0.01 in0.3 mm 0.56 in14.2 mm
02:00 PM 40.3°F4.6°C 39.3°F4.1°C 96% 0.1 mph W0.2 kmh W -- 30.07 in1018.3 mb - 0.02 in0.5 mm 0.55 in14.0 mm
01:50 PM 40.4°F4.7°C 39.3°F4.1°C 96% 0.4 mph NW0.6 kmh NW -- 30.07 in1018.3 mb - 0.03 in0.8 mm 0.53 in13.5 mm
01:40 PM 40.2°F4.6°C 39.2°F4.0°C 96% Calm Calm -- 30.07 in1018.3 mb - 0.03 in0.8 mm 0.51 in13.0 mm
01:30 PM 40.3°F4.6°C 39.3°F4.1°C 96% 1.2 mph NNW1.9 kmh NNW 2.6 mph4.2 kmh 30.07 in1018.3 mb - 0.01 in0.3 mm 0.48 in12.2 mm
01:20 PM 40.1°F4.5°C 39.1°F3.9°C 96% 0.3 mph NW0.5 kmh NW 1.3 mph2.1 kmh 30.08 in1018.6 mb - 0.02 in0.5 mm 0.47 in11.9 mm
01:10 PM 39.9°F4.4°C 38.8°F3.8°C 96% 0.7 mph WNW1.1 kmh WNW 2.6 mph4.2 kmh 30.08 in1018.6 mb - 0.01 in0.3 mm 0.45 in11.4 mm
01:00 PM 39.7°F4.3°C 38.6°F3.7°C 96% 0.1 mph NNW0.2 kmh NNW 2.6 mph4.2 kmh 30.08 in1018.6 mb - 0.03 in0.8 mm 0.44 in11.2 mm
12:50 PM 39.6°F4.2°C 38.5°F3.6°C 96% 1.5 mph WNW2.4 kmh WNW 2.6 mph4.2 kmh 30.08 in1018.6 mb - 0.01 in0.3 mm 0.41 in10.4 mm
12:40 PM 39.2°F4.0°C 38.2°F3.4°C 96% 1.0 mph WNW1.6 kmh WNW 3.9 mph6.3 kmh 30.09 in1019.0 mb - 0.05 in1.3 mm 0.40 in10.2 mm
12:30 PM 39.1°F3.9°C 38.1°F3.4°C 96% 1.6 mph NW2.6 kmh NW 2.6 mph4.2 kmh 30.09 in1019.0 mb - 0.07 in1.8 mm 0.37 in9.4 mm
12:20 PM 39.2°F4.0°C 38.2°F3.4°C 96% 2.3 mph NW3.7 kmh NW 2.6 mph4.2 kmh 30.09 in1019.0 mb - 0.06 in1.5 mm 0.30 in7.6 mm
12:10 PM 39.3°F4.1°C 38.3°F3.5°C 96% 0.1 mph WNW0.2 kmh WNW -- 30.09 in1019.0 mb - 0.04 in1.0 mm 0.25 in6.4 mm
12:00 PM 39.2°F4.0°C 38.2°F3.4°C 96% Calm Calm -- 30.09 in1019.0 mb - 0.04 in1.0 mm 0.21 in5.3 mm
11:50 AM 39.0°F3.9°C 37.9°F3.3°C 96% Calm Calm -- 30.10 in1019.3 mb - 0.03 in0.8 mm 0.18 in4.6 mm
11:40 AM 38.6°F3.7°C 37.5°F3.1°C 96% Calm Calm -- 30.11 in1019.6 mb - 0.04 in1.0 mm 0.15 in3.8 mm
11:30 AM 38.3°F3.5°C 37.2°F2.9°C 96% Calm Calm -- 30.11 in1019.6 mb - 0.04 in1.0 mm 0.12 in3.0 mm
11:20 AM 38.2°F3.4°C 37.2°F2.9°C 96% Calm Calm -- 30.12 in1020.0 mb - 0.03 in0.8 mm 0.08 in2.0 mm
11:10 AM 38.3°F3.5°C 37.3°F2.9°C 96% 1.4 mph W2.3 kmh W 2.6 mph4.2 kmh 30.13 in1020.3 mb - 0.02 in0.5 mm 0.05 in1.3 mm
11:00 AM 38.4°F3.6°C 37.3°F2.9°C 96% 0.5 mph NNW0.8 kmh NNW 2.6 mph4.2 kmh 30.13 in1020.3 mb - 0.01 in0.3 mm 0.03 in0.8 mm
10:50 AM 38.3°F3.5°C 37.3°F2.9°C 96% Calm Calm -- 30.13 in1020.3 mb - 0.00 in0.0 mm 0.02 in0.5 mm
10:40 AM 38.2°F3.4°C 37.2°F2.9°C 96% Calm Calm -- 30.13 in1020.3 mb - 0.00 in0.0 mm 0.02 in0.5 mm
10:30 AM 38.0°F3.3°C 36.7°F2.6°C 95% Calm Calm -- 30.14 in1020.7 mb - 0.00 in0.0 mm 0.02 in0.5 mm
10:20 AM 37.8°F3.2°C 36.5°F2.5°C 95% Calm Calm -- 30.14 in1020.7 mb - 0.00 in0.0 mm 0.02 in0.5 mm
10:10 AM 37.7°F3.2°C 36.4°F2.4°C 95% 0.2 mph NNW0.3 kmh NNW 1.3 mph2.1 kmh 30.15 in1021.0 mb - 0.01 in0.3 mm 0.02 in0.5 mm
10:00 AM 37.6°F3.1°C 36.3°F2.4°C 95% 0.1 mph NE0.2 kmh NE -- 30.15 in1021.0 mb - 0.00 in0.0 mm 0.01 in0.3 mm
09:50 AM 37.4°F3.0°C 36.1°F2.3°C 95% Calm Calm -- 30.15 in1021.0 mb - 0.00 in0.0 mm 0.01 in0.3 mm
09:40 AM 37.3°F2.9°C 36.0°F2.2°C 95% Calm Calm -- 30.15 in1021.0 mb - 0.00 in0.0 mm 0.01 in0.3 mm
09:30 AM 37.2°F2.9°C 35.9°F2.2°C 95% Calm Calm 1.3 mph2.1 kmh 30.16 in1021.3 mb - 0.00 in0.0 mm 0.01 in0.3 mm
09:20 AM 36.8°F2.7°C 35.5°F1.9°C 95% Calm Calm -- 30.16 in1021.3 mb - 0.00 in0.0 mm 0.01 in0.3 mm
09:10 AM 36.5°F2.5°C 35.2°F1.8°C 95% Calm Calm -- 30.16 in1021.3 mb - 0.00 in0.0 mm 0.01 in0.3 mm
09:00 AM 36.2°F2.3°C 34.9°F1.6°C 95% Calm Calm -- 30.17 in1021.7 mb - 0.00 in0.0 mm 0.01 in0.3 mm
08:50 AM 35.8°F2.1°C 34.6°F1.4°C 95% Calm Calm -- 30.17 in1021.7 mb - 0.00 in0.0 mm 0.01 in0.3 mm
08:40 AM 35.7°F2.1°C 34.5°F1.4°C 95% Calm Calm -- 30.17 in1021.7 mb - 0.00 in0.0 mm 0.01 in0.3 mm
08:30 AM 35.6°F2.0°C 34.3°F1.3°C 95% Calm Calm -- 30.18 in1022.0 mb - 0.01 in0.3 mm 0.01 in0.3 mm
08:20 AM 35.4°F1.9°C 34.1°F1.2°C 95% Calm Calm -- 30.19 in1022.4 mb - 0.01 in0.3 mm 0.01 in0.3 mm
08:10 AM 35.2°F1.8°C 34.0°F1.1°C 95% Calm Calm -- 30.19 in1022.4 mb - 0.00 in0.0 mm 0.00 in0.0 mm
08:00 AM 35.1°F1.7°C 33.8°F1.0°C 95% Calm Calm -- 30.19 in1022.4 mb - 0.00 in0.0 mm 0.00 in0.0 mm
07:50 AM 34.8°F1.6°C 33.6°F0.9°C 95% Calm Calm -- 30.20 in1022.7 mb - 0.00 in0.0 mm 0.00 in0.0 mm
07:40 AM 34.7°F1.5°C 33.5°F0.8°C 95% Calm Calm -- 30.20 in1022.7 mb - 0.00 in0.0 mm 0.00 in0.0 mm
07:30 AM 34.7°F1.5°C 33.4°F0.8°C 95% Calm Calm -- 30.20 in1022.7 mb - 0.00 in0.0 mm 0.00 in0.0 mm
07:20 AM 34.6°F1.4°C 33.3°F0.7°C 95% Calm Calm -- 30.20 in1022.7 mb - 0.00 in0.0 mm 0.00 in0.0 mm
07:10 AM 34.6°F1.4°C 33.3°F0.7°C 95% Calm Calm -- 30.21 in1023.0 mb - 0.00 in0.0 mm 0.00 in0.0 mm
07:00 AM 34.5°F1.4°C 33.2°F0.7°C 95% Calm Calm -- 30.21 in1023.0 mb - 0.00 in0.0 mm 0.00 in0.0 mm
06:50 AM 34.4°F1.3°C 33.1°F0.6°C 95% Calm Calm -- 30.22 in1023.4 mb - 0.00 in0.0 mm 0.00 in0.0 mm
06:40 AM 34.3°F1.3°C 33.1°F0.6°C 95% Calm Calm -- 30.23 in1023.7 mb - 0.00 in0.0 mm 0.00 in0.0 mm
06:30 AM 34.3°F1.3°C 33.1°F0.6°C 95% Calm Calm -- 30.23 in1023.7 mb - 0.00 in0.0 mm 0.00 in0.0 mm
06:20 AM 34.3°F1.3°C 33.1°F0.6°C 95% Calm Calm -- 30.23 in1023.7 mb - 0.00 in0.0 mm 0.00 in0.0 mm
06:10 AM 34.3°F1.3°C 33.1°F0.6°C 95% Calm Calm -- 30.24 in1024.0 mb - 0.00 in0.0 mm 0.00 in0.0 mm
06:00 AM 34.2°F1.2°C 32.9°F0.5°C 95% Calm Calm -- 30.24 in1024.0 mb - 0.00 in0.0 mm 0.00 in0.0 mm
05:50 AM 34.2°F1.2°C 32.9°F0.5°C 95% Calm Calm -- 30.24 in1024.0 mb - 0.00 in0.0 mm 0.00 in0.0 mm
05:40 AM 34.2°F1.2°C 32.9°F0.5°C 95% Calm Calm -- 30.24 in1024.0 mb - 0.00 in0.0 mm 0.00 in0.0 mm
05:30 AM 34.2°F1.2°C 32.9°F0.5°C 95% 0.2 mph SE0.3 kmh SE 1.3 mph2.1 kmh 30.24 in1024.0 mb - 0.00 in0.0 mm 0.00 in0.0 mm
05:20 AM 34.1°F1.2°C 32.9°F0.5°C 95% Calm Calm -- 30.25 in1024.4 mb - 0.00 in0.0 mm 0.00 in0.0 mm
05:10 AM 34.2°F1.2°C 32.9°F0.5°C 95% Calm Calm -- 30.25 in1024.4 mb - 0.00 in0.0 mm 0.00 in0.0 mm
05:00 AM 34.3°F1.3°C 33.1°F0.6°C 95% Calm Calm -- 30.26 in1024.7 mb - 0.00 in0.0 mm 0.00 in0.0 mm
04:50 AM 34.4°F1.3°C 33.1°F0.6°C 95% Calm Calm -- 30.27 in1025.1 mb - 0.00 in0.0 mm 0.00 in0.0 mm
04:40 AM 34.6°F1.4°C 33.3°F0.7°C 95% Calm Calm -- 30.27 in1025.1 mb - 0.00 in0.0 mm 0.00 in0.0 mm
04:30 AM 34.6°F1.4°C 33.3°F0.7°C 95% Calm Calm -- 30.27 in1025.1 mb - 0.00 in0.0 mm 0.00 in0.0 mm
04:20 AM 34.7°F1.5°C 33.4°F0.8°C 95% Calm Calm -- 30.27 in1025.1 mb - 0.00 in0.0 mm 0.00 in0.0 mm
04:10 AM 34.8°F1.6°C 33.5°F0.8°C 95% Calm Calm -- 30.28 in1025.4 mb - 0.00 in0.0 mm 0.00 in0.0 mm
04:00 AM 34.9°F1.6°C 33.6°F0.9°C 95% Calm Calm -- 30.28 in1025.4 mb - 0.00 in0.0 mm 0.00 in0.0 mm
03:50 AM 35.1°F1.7°C 33.8°F1.0°C 95% 1.0 mph ESE1.6 kmh ESE 2.6 mph4.2 kmh 30.29 in1025.7 mb - 0.00 in0.0 mm 0.00 in0.0 mm
03:40 AM 35.4°F1.9°C 33.8°F1.0°C 94% 1.8 mph ESE2.9 kmh ESE 2.6 mph4.2 kmh 30.29 in1025.7 mb - 0.00 in0.0 mm 0.00 in0.0 mm
03:30 AM 35.5°F1.9°C 33.4°F0.8°C 92% 0.5 mph E0.8 kmh E 1.3 mph2.1 kmh 30.29 in1025.7 mb - 0.00 in0.0 mm 0.00 in0.0 mm
03:20 AM 35.5°F1.9°C 32.9°F0.5°C 90% Calm Calm 1.3 mph2.1 kmh 30.29 in1025.7 mb - 0.00 in0.0 mm 0.00 in0.0 mm
03:10 AM 35.5°F1.9°C 32.9°F0.5°C 90% 0.8 mph E1.3 kmh E 2.6 mph4.2 kmh 30.30 in1026.1 mb - 0.00 in0.0 mm 0.00 in0.0 mm
03:00 AM 35.3°F1.8°C 33.0°F0.6°C 91% 0.2 mph E0.3 kmh E -- 30.31 in1026.4 mb - 0.00 in0.0 mm 0.00 in0.0 mm
02:50 AM 35.4°F1.9°C 32.8°F0.4°C 90% Calm Calm -- 30.32 in1026.8 mb - 0.00 in0.0 mm 0.00 in0.0 mm
02:40 AM 35.4°F1.9°C 32.8°F0.4°C 90% Calm Calm -- 30.32 in1026.8 mb - 0.00 in0.0 mm 0.00 in0.0 mm
02:30 AM 35.6°F2.0°C 33.0°F0.6°C 90% Calm Calm -- 30.33 in1027.1 mb - 0.00 in0.0 mm 0.00 in0.0 mm
02:20 AM 35.7°F2.1°C 32.8°F0.4°C 89% Calm Calm 1.3 mph2.1 kmh 30.33 in1027.1 mb - 0.00 in0.0 mm 0.00 in0.0 mm
02:10 AM 35.7°F2.1°C 32.8°F0.4°C 89% Calm Calm -- 30.33 in1027.1 mb - 0.00 in0.0 mm 0.00 in0.0 mm
02:00 AM 35.7°F2.1°C 32.8°F0.4°C 89% Calm Calm -- 30.33 in1027.1 mb - 0.00 in0.0 mm 0.00 in0.0 mm
01:50 AM 35.8°F2.1°C 32.9°F0.5°C 89% 0.2 mph E0.3 kmh E -- 30.33 in1027.1 mb - 0.00 in0.0 mm 0.00 in0.0 mm
01:40 AM 35.8°F2.1°C 32.9°F0.5°C 89% Calm Calm -- 30.34 in1027.4 mb - 0.00 in0.0 mm 0.00 in0.0 mm
01:30 AM 35.8°F2.1°C 32.9°F0.5°C 89% 0.1 mph E0.2 kmh E -- 30.34 in1027.4 mb - 0.00 in0.0 mm 0.00 in0.0 mm
01:20 AM 35.9°F2.2°C 33.0°F0.6°C 89% 1.1 mph E1.8 kmh E 2.6 mph4.2 kmh 30.34 in1027.4 mb - 0.00 in0.0 mm 0.00 in0.0 mm
01:10 AM 35.8°F2.1°C 32.9°F0.5°C 89% 1.2 mph E1.9 kmh E 2.6 mph4.2 kmh 30.35 in1027.8 mb - 0.00 in0.0 mm 0.00 in0.0 mm
01:00 AM 35.8°F2.1°C 32.9°F0.5°C 89% Calm Calm -- 30.36 in1028.1 mb - 0.00 in0.0 mm 0.00 in0.0 mm
12:50 AM 35.8°F2.1°C 32.9°F0.5°C 89% Calm Calm -- 30.36 in1028.1 mb - 0.00 in0.0 mm 0.00 in0.0 mm
12:40 AM 35.7°F2.1°C 32.8°F0.4°C 89% Calm Calm -- 30.37 in1028.4 mb - 0.00 in0.0 mm 0.00 in0.0 mm
12:30 AM 35.7°F2.1°C 32.8°F0.4°C 89% Calm Calm 1.3 mph2.1 kmh 30.38 in1028.8 mb - 0.00 in0.0 mm 0.00 in0.0 mm
12:20 AM 35.7°F2.1°C 32.8°F0.4°C 89% Calm Calm -- 30.38 in1028.8 mb - 0.00 in0.0 mm 0.00 in0.0 mm
12:00 AM 35.9°F2.2°C 32.7°F0.4°C 88% Calm Calm -- 30.39 in1029.1 mb - 0.00 in0.0 mm 0.00 in0.0 mm